Valdosta, Georgia
Current Conditions -  °F | °C
As of 6:53 AM on Monday 22 Dec 2014 (Local Time) from KVLD Reporting Station
Moderate Fog Moderate Fog  
Wind Chill: 52°   Ceiling: 200
Heat Index: 52°   Visibility: 0.5mi
Dew Point: 52°   Wind: 5mph
Humidity: 100%   Direction: 10°N
Pressure: 30"   Gusts: NA
Location:  30.84°N, 83.28°W
Report Text: KVLD 221153Z 01004KT 1/2SM FG VV002 11/11 A3000 RMK AO2 SLP165 60000 70021 T01110111 10117 20111 55002
Loading
Personal Weather Stations






























Interactive Weather Map New forecast layout! Learn more

10-Day Weather Forecast

Advertisements
Track Severe Weather on mobile